KMCD

Mackinac Island Airport

Mackinac Island, Michigan, USA
METAR KMCD 171635Z AUTO 05003KT 10SM SCT049 26/13 A2996 RMK AO2 T02590125
Observed Flight Rules
Aug-17 @ 16:35 UTC (18 minutes ago) Visual Flight Rules
Wind Visibility Clouds
50° at 3 knots 10 miles
  • Scattered at 4,900' AGL
Temperatures Readings
Current 26°C / 79°F
Dewpoint 13°C / 55°F
Humidity 45%
Altimeter 29.96" Hg
Pressure 1015 hPa
Elevation 226
METAR KMCD 171635Z AUTO 05003KT 10SM SCT049 26/13 A2996 RMK AO2 T02590125
Observed Flight Rules
Aug-17 @ 16:35 UTC
(18 minutes ago)
VFR
Wind Visibility
50° at 3 knots 10 miles
Clouds
  • Scattered at 4,900' AGL
Temperature Dewpoint
26°C / 79°F 13°C / 55°F
Humidity Altimeter Pressure
45% 29.96" Hg 1015 hPa